Arar, Saudi Arabia
Current Conditions -  °F | °C
As of 1:00 PM on Friday 19 Dec 2014 (Local Time) from OERR Reporting Station
Scattered Clouds Scattered Clouds  
Wind Chill: 68°   Ceiling: Unl
Heat Index: 68°   Visibility: 6mi
Dew Point: 55°   Wind: 8mph
Humidity: 64%   Direction: 310°NW
Pressure: 30"   Gusts: NA
Location:  30.91°N, 41.14°E
Report Text: OERR 191000Z 31007KT 9999 FEW040 SCT100 20/13 Q1016 NOSIG
Loading
Personal Weather Stations






























Interactive Weather Map New forecast layout! Learn more

10-Day Weather Forecast

Advertisements
Track Severe Weather on mobile